Madison Lake, Minnesota
Current Conditions -  °F | °C
As of 1:35 PM on Saturday 25 Oct 2014 (Local Time) from KMKT Reporting Station
Clear Clear  
Wind Chill: 63°   Ceiling: Unl
Heat Index: 63°   Visibility: 10mi
Dew Point: 30°   Wind: 17mph
Humidity: 30%   Direction: 320°NW
Pressure: 30.09"   Gusts: 23mph
Location:  44.2°N, 93.82°W
Report Text: KMKT 251835Z AUTO 32015G20KT 10SM CLR 17/M01 A3009 RMK AO1
Loading
Personal Weather Stations






























Interactive Weather Map
Tropical Storm Tracking
New forecast layout! Learn more

10-Day Weather Forecast

Advertisements
Track Severe Weather on mobile